M I D A S
Marine Information and Data Acquisition System
Tripno 1872 of the Zeeleeuw from 2010-04-30 10:37:57 to 2010-04-30 13:23:04
Back to CruiseResearch ActivitiesStationsMapUnderway DataData graphs

EquipmentUnitsComments
TimeDGPSUTC
LatitudeDGPSDM.mWGS84
LongitudeDGPSDM.mWGS84
SpeedMeteo Stationm/sRelative wind speed
DirectionMeteo StationdegRelative wind direction
TemperatureMeteo Stationdeg CelciusAir temperature
PressureMeteo StationPaAtmospheric pressure
HumidityMeteo Station%Relative humidity
Missing or incorrect values are displayed as -999
Metereological data collected by the RV Zeeleeuw from 2010-04-30 10:41:07 to 2010-04-30 13:44:27
Time Latitude Longitude Speed Direction Temperature Pressure Humidity
2010-04-30 10:42 51°13.677 2°55.91 5.9 49 11.3 101120 38
2010-04-30 10:43 51°13.695 2°55.812 6.7 75 11.3 101120 39
2010-04-30 10:44 51°13.704 2°55.76 5.1 49 11.1 101120 37
2010-04-30 10:45 51°13.697 2°55.743 8.4 75 11.1 101130 37
2010-04-30 10:46 51°13.731 2°55.723 5.2 307 11.1 101130 39
2010-04-30 10:47 51°13.851 2°55.623 2.6 277 11.1 101120 38
2010-04-30 10:48 51°14.003 2°55.517 5.4 285 11.3 101090 39
2010-04-30 10:49 51°14.157 2°55.397 7.4 284 11.3 101110 37
2010-04-30 10:50 51°14.312 2°55.254 9.3 278 11.4 101100 38
2010-04-30 10:51 51°14.48 2°55.087 12.2 287 11.2 101070 37
2010-04-30 10:52 51°14.646 2°54.867 11.1 280 11.1 101060 37
2010-04-30 10:53 51°14.837 2°54.687 10.8 287 11 101080 38
2010-04-30 10:54 51°15.029 2°54.51 11.8 285 11 101090 38
2010-04-30 10:55 51°15.213 2°54.318 12.1 281 10.9 101090 38
2010-04-30 10:56 51°15.387 2°54.1 13.3 279 10.8 101080 38
2010-04-30 10:57 51°15.56 2°53.878 11.2 278 10.8 101060 37
2010-04-30 10:58 51°15.726 2°53.643 12.3 281 10.8 101060 39
2010-04-30 10:59 51°15.887 2°53.397 12.5 284 10.8 101070 39
2010-04-30 11:00 51°16.068 2°53.2 13.2 284 10.7 101070 38
2010-04-30 11:01 51°16.264 2°53.045 12.3 285 10.7 101080 39
2010-04-30 11:02 51°16.465 2°52.909 12 278 10.8 101100 39
2010-04-30 11:03 51°16.666 2°52.773 12.9 282 10.8 101080 39
2010-04-30 11:04 51°16.864 2°52.632 11 281 10.8 101090 39
2010-04-30 11:05 51°17.061 2°52.49 13.4 277 10.8 101090 38
2010-04-30 11:06 51°17.259 2°52.346 13.2 283 10.8 101090 38
2010-04-30 11:07 51°17.457 2°52.198 12 280 10.8 101070 39
2010-04-30 11:08 51°17.642 2°52.015 11.5 284 10.8 101060 39
2010-04-30 11:09 51°17.823 2°51.822 13.1 287 10.8 101060 39
2010-04-30 11:10 51°18.002 2°51.624 13.7 278 10.8 101060 39
2010-04-30 11:11 51°18.172 2°51.406 13 286 10.7 101060 38
2010-04-30 11:12 51°18.321 2°51.207 12 283 10.7 101040 39
2010-04-30 11:13 51°18.402 2°51.095 10.4 280 10.8 101070 38
2010-04-30 11:14 51°18.448 2°51.031 9.2 283 10.7 101070 39
2010-04-30 11:15 51°18.464 2°51.005 8.6 280 10.7 101080 40
2010-04-30 11:16 51°18.467 2°50.999 10 279 10.8 101080 39
2010-04-30 11:17 51°18.467 2°51.003 7.2 280 10.8 101070 39
2010-04-30 11:18 51°18.463 2°51.016 10.6 286 10.8 101080 39
2010-04-30 11:19 51°18.457 2°51.033 9.4 284 10.8 101080 38
2010-04-30 11:20 51°18.449 2°51.051 6.5 279 10.8 101070 38
2010-04-30 11:21 51°18.441 2°51.07 8.5 283 10.7 101080 38
2010-04-30 11:22 51°18.436 2°51.087 6.4 286 10.7 101070 38
2010-04-30 11:23 51°18.431 2°51.104 6.3 279 10.7 101080 38
2010-04-30 11:24 51°18.426 2°51.122 10.4 279 10.8 101080 38
2010-04-30 11:25 51°18.423 2°51.141 10.2 280 10.8 101070 39
2010-04-30 11:26 51°18.421 2°51.16 9.6 283 10.7 101070 40
2010-04-30 11:27 51°18.418 2°51.182 6.8 286 10.8 101070 38
2010-04-30 11:28 51°18.416 2°51.204 8.5 285 10.7 101070 40
2010-04-30 11:29 51°18.412 2°51.227 7.1 282 10.8 101070 38
2010-04-30 11:30 51°18.416 2°51.249 9.7 284 10.8 101070 39
2010-04-30 11:31 51°18.46 2°51.265 8.5 280 10.8 101080 38
2010-04-30 11:32 51°18.484 2°51.379 8.4 39 10.8 101090 38
2010-04-30 11:33 51°18.415 2°51.455 7.8 5 10.8 101080 38
2010-04-30 11:34 51°18.315 2°51.475 9.9 8 10.7 101060 39
2010-04-30 11:35 51°18.204 2°51.537 9.1 10 10.7 101070 38
2010-04-30 11:36 51°18.093 2°51.607 7.9 7 10.7 101060 39
2010-04-30 11:37 51°17.986 2°51.633 10.2 284 10.7 101050 38
2010-04-30 11:38 51°17.958 2°51.552 10.1 284 10.8 101070 39
2010-04-30 11:39 51°17.975 2°51.547 10 282 10.8 101070 39
2010-04-30 11:40 51°17.987 2°51.564 8.7 280 10.9 101080 39
2010-04-30 11:41 51°17.995 2°51.593 7.8 286 10.9 101080 38
2010-04-30 11:42 51°17.999 2°51.628 6.7 284 11 101080 38
2010-04-30 11:43 51°18.001 2°51.668 9.1 284 11 101090 39
2010-04-30 11:44 51°18.001 2°51.708 6.4 279 11 101100 37
2010-04-30 11:45 51°18.003 2°51.747 8.4 284 11 101100 37
2010-04-30 11:46 51°18.004 2°51.785 7.8 283 11 101100 38
2010-04-30 11:47 51°18.008 2°51.824 8.2 279 11.1 101100 38
2010-04-30 11:48 51°18.027 2°51.843 9.1 278 11 101090 38
2010-04-30 11:49 51°18.044 2°51.817 9.4 281 11 101060 39
2010-04-30 11:50 51°18.008 2°51.796 9.4 5 10.9 101050 39
2010-04-30 11:51 51°17.879 2°51.872 10.5 360 10.9 101060 39
2010-04-30 11:52 51°17.687 2°52.024 8.7 5 10.8 101040 39
2010-04-30 11:53 51°17.505 2°52.223 7.7 1 10.8 101050 37
2010-04-30 11:54 51°17.351 2°52.479 7.5 14 10.7 101060 39
2010-04-30 11:55 51°17.189 2°52.722 9.5 7 10.7 101070 39
2010-04-30 11:56 51°16.99 2°52.854 9.1 5 10.7 101050 39
2010-04-30 11:57 51°16.83 2°53.1 6.6 16 10.7 101060 39
2010-04-30 11:58 51°16.745 2°53.37 7.3 14 10.7 101080 39
2010-04-30 11:59 51°16.671 2°53.408 8.7 282 10.7 101060 39
2010-04-30 12:00 51°16.66 2°53.366 8.5 281 10.7 101070 38
2010-04-30 12:01 51°16.679 2°53.38 9.4 285 10.8 101070 37
2010-04-30 12:02 51°16.702 2°53.42 9.9 285 10.9 101070 38
2010-04-30 12:03 51°16.727 2°53.456 10.1 285 10.9 101070 39
2010-04-30 12:04 51°16.751 2°53.455 10.2 279 10.9 101070 39
2010-04-30 12:05 51°16.702 2°53.433 9.1 358 10.9 101050 39
2010-04-30 12:06 51°16.617 2°53.404 9.6 284 10.8 101040 39
2010-04-30 12:07 51°16.619 2°53.33 9.6 279 10.8 101060 37
2010-04-30 12:08 51°16.638 2°53.318 8 282 10.8 101060 39
2010-04-30 12:09 51°16.656 2°53.332 9 284 10.9 101070 37
2010-04-30 12:10 51°16.671 2°53.355 10 279 10.9 101070 38
2010-04-30 12:11 51°16.684 2°53.384 9.1 278 10.9 101070 38
2010-04-30 12:12 51°16.695 2°53.416 7.7 285 11 101070 37
2010-04-30 12:13 51°16.704 2°53.448 8.1 278 11 101070 38
2010-04-30 12:14 51°16.709 2°53.488 7.5 281 11 101080 38
2010-04-30 12:15 51°16.711 2°53.538 7.7 -999 10.9 101060 38
2010-04-30 12:16 51°16.7 2°53.568 8.4 284 10.8 101060 37
2010-04-30 12:17 51°16.704 2°53.569 7.9 284 10.9 101070 37
2010-04-30 12:18 51°16.727 2°53.596 7.8 280 10.9 101060 38
2010-04-30 12:19 51°16.752 2°53.628 8 284 10.9 101060 39
2010-04-30 12:20 51°16.775 2°53.652 8.3 281 11 101060 38
2010-04-30 12:21 51°16.797 2°53.669 9.7 285 11 101060 39
2010-04-30 12:22 51°16.817 2°53.683 7.2 278 11.1 101060 39
2010-04-30 12:23 51°16.838 2°53.697 7.4 283 11 101060 38
2010-04-30 12:24 51°16.859 2°53.709 9.4 285 11.1 101060 37
2010-04-30 12:25 51°16.882 2°53.719 7.7 280 11.1 101060 38
2010-04-30 12:26 51°16.899 2°53.733 7.9 281 11.1 101060 39
2010-04-30 12:27 51°16.863 2°53.709 11.1 279 11.1 101050 39
2010-04-30 12:28 51°16.74 2°53.64 10.3 352 11 101040 39
2010-04-30 12:29 51°16.64 2°53.577 9.4 278 11 101070 39
2010-04-30 12:30 51°16.638 2°53.541 8.5 279 11 101080 38
2010-04-30 12:31 51°16.654 2°53.544 8.6 278 11 101070 39
2010-04-30 12:32 51°16.673 2°53.569 9.4 285 11 101070 38
2010-04-30 12:33 51°16.69 2°53.591 7.9 281 11 101070 36
2010-04-30 12:34 51°16.698 2°53.607 7.3 279 11 101070 39
2010-04-30 12:35 51°16.696 2°53.627 7.5 281 11.1 101070 39
2010-04-30 12:36 51°16.697 2°53.642 9.3 282 11.1 101080 38
2010-04-30 12:37 51°16.707 2°53.646 8.4 277 11.1 101070 39
2010-04-30 12:38 51°16.724 2°53.65 8 285 11.1 101070 39
2010-04-30 12:39 51°16.738 2°53.649 7.8 279 11.2 101080 38
2010-04-30 12:40 51°16.753 2°53.644 7.3 279 11.3 101070 37
2010-04-30 12:41 51°16.763 2°53.641 7.6 285 11.2 101080 37
2010-04-30 12:42 51°16.762 2°53.652 8.4 282 11.2 101080 37
2010-04-30 12:43 51°16.752 2°53.676 8.4 348 11.1 101070 37
2010-04-30 12:44 51°16.75 2°53.693 7.8 281 11 101080 39
2010-04-30 12:45 51°16.761 2°53.702 7.9 283 11.1 101080 38
2010-04-30 12:46 51°16.782 2°53.703 8.3 283 11.2 101070 39
2010-04-30 12:47 51°16.803 2°53.702 8.5 282 11.2 101080 39
2010-04-30 12:48 51°16.814 2°53.702 8.8 279 11.3 101080 37
2010-04-30 12:49 51°16.816 2°53.706 8.3 278 11.3 101080 37
2010-04-30 12:50 51°16.816 2°53.709 8.1 280 11.3 101070 39
2010-04-30 12:51 51°16.817 2°53.71 10.2 285 11.3 101070 38
2010-04-30 12:52 51°16.818 2°53.712 9 285 11.3 101070 37
2010-04-30 12:53 51°16.818 2°53.716 8.9 282 11.3 101070 38
2010-04-30 12:54 51°16.818 2°53.719 8.3 279 11.3 101080 39
2010-04-30 12:55 51°16.819 2°53.725 8.4 285 11.3 101070 39
2010-04-30 12:56 51°16.813 2°53.734 8.7 283 11.3 101080 39
2010-04-30 12:57 51°16.789 2°53.74 9 281 11.2 101070 39
2010-04-30 12:58 51°16.751 2°53.678 9.2 283 11.2 101070 39
2010-04-30 12:59 51°16.675 2°53.689 7 5 11.2 101060 39
2010-04-30 13:00 51°16.601 2°53.859 4.5 38 11.1 101070 38
2010-04-30 13:01 51°16.589 2°54.196 3.9 22 11.2 101090 38
2010-04-30 13:02 51°16.544 2°54.514 6.9 21 11.2 101080 40
2010-04-30 13:03 51°16.471 2°54.611 9.2 349 11.2 101080 38
2010-04-30 13:04 51°16.443 2°54.532 9 279 11.2 101080 38
2010-04-30 13:05 51°16.359 2°54.414 9.7 283 11.3 101070 39
2010-04-30 13:06 51°16.302 2°54.322 8.2 281 11.4 101080 38
2010-04-30 13:07 51°16.294 2°54.302 9.1 279 11.4 101080 38
2010-04-30 13:08 51°16.297 2°54.31 7.4 282 11.4 101080 38
2010-04-30 13:09 51°16.302 2°54.321 7.2 282 11.5 101080 38
2010-04-30 13:10 51°16.306 2°54.328 8.3 284 11.5 101080 40
2010-04-30 13:11 51°16.307 2°54.336 7.4 278 11.5 101080 40
2010-04-30 13:12 51°16.302 2°54.352 7.7 278 11.5 101070 38
2010-04-30 13:13 51°16.295 2°54.373 7.7 282 11.3 101070 38
2010-04-30 13:14 51°16.291 2°54.392 7.9 285 11.3 101070 40
2010-04-30 13:15 51°16.287 2°54.4 8.2 283 11.4 101080 40
2010-04-30 13:16 51°16.286 2°54.398 8.5 279 11.5 101080 38
2010-04-30 13:17 51°16.287 2°54.392 7.9 280 11.5 101080 39
2010-04-30 13:18 51°16.293 2°54.382 8 278 11.5 101070 39
2010-04-30 13:19 51°16.3 2°54.377 8.5 279 11.6 101080 38
2010-04-30 13:20 51°16.299 2°54.378 8.5 278 11.6 101070 39
2010-04-30 13:21 51°16.29 2°54.391 7.8 347 11.6 101070 39
2010-04-30 13:22 51°16.254 2°54.38 9 280 11.6 101050 38
2010-04-30 13:23 51°16.192 2°54.294 10.5 280 11.6 101060 39
2010-04-30 13:24 51°16.109 2°54.151 10.9 279 11.7 101060 39
2010-04-30 13:25 51°16.02 2°54.001 10.8 282 11.7 101060 39
2010-04-30 13:26 51°15.915 2°53.877 10.4 344 11.8 101070 39
2010-04-30 13:27 51°15.782 2°53.799 10.4 349 11.7 101070 38
2010-04-30 13:28 51°15.603 2°53.773 9.8 352 11.6 101070 39
2010-04-30 13:29 51°15.404 2°53.775 9.3 355 11.5 101060 38
2010-04-30 13:30 51°15.211 2°53.907 6.7 7 11.5 101060 39
2010-04-30 13:31 51°15.081 2°54.2 5.9 10 11.5 101080 38
2010-04-30 13:32 51°14.947 2°54.5 7 6 11.5 101080 39
2010-04-30 13:33 51°14.784 2°54.749 6.7 6 11.6 101070 38
2010-04-30 13:34 51°14.604 2°54.953 6.7 4 11.6 101060 39
2010-04-30 13:35 51°14.418 2°55.125 6.6 5 11.6 101070 39
2010-04-30 13:36 51°14.262 2°55.297 7.6 17 11.7 101070 38
2010-04-30 13:37 51°14.153 2°55.408 3.7 8 11.8 101080 40
2010-04-30 13:38 51°14.047 2°55.489 3.5 20 12 101080 38
2010-04-30 13:39 51°13.929 2°55.568 6 14 12.2 101070 38
2010-04-30 13:40 51°13.818 2°55.636 2.7 354 12.4 101080 37
2010-04-30 13:41 51°13.745 2°55.721 4.9 40 12.5 101080 38
2010-04-30 13:42 51°13.702 2°55.816 2.4 37 12.6 101080 37
2010-04-30 13:43 51°13.673 2°55.912 3 74 12.8 101080 37
2010-04-30 13:44 51°13.663 2°55.955 5 80 12.8 101080 36